sensor_id;sensor_type;location;lat;lon;timestamp;P1;durP1;ratioP1;P2;durP2;ratioP2
12725;SDS011;6427;49.754;6.106;2023-07-20T00:02:02;4.47;;;1.93;;
12725;SDS011;6427;49.754;6.106;2023-07-20T00:04:47;4.20;;;2.20;;
12725;SDS011;6427;49.754;6.106;2023-07-20T00:07:15;6.43;;;2.00;;
12725;SDS011;6427;49.754;6.106;2023-07-20T00:09:43;5.07;;;2.40;;
12725;SDS011;6427;49.754;6.106;2023-07-20T00:12:10;3.43;;;1.73;;
12725;SDS011;6427;49.754;6.106;2023-07-20T00:14:38;4.97;;;2.20;;
12725;SDS011;6427;49.754;6.106;2023-07-20T00:17:06;5.10;;;1.67;;
12725;SDS011;6427;49.754;6.106;2023-07-20T00:19:33;3.00;;;1.90;;
12725;SDS011;6427;49.754;6.106;2023-07-20T00:22:01;4.00;;;2.27;;
12725;SDS011;6427;49.754;6.106;2023-07-20T00:24:28;4.07;;;2.30;;
12725;SDS011;6427;49.754;6.106;2023-07-20T00:26:56;3.40;;;2.10;;
12725;SDS011;6427;49.754;6.106;2023-07-20T00:29:24;3.80;;;1.83;;
12725;SDS011;6427;49.754;6.106;2023-07-20T00:31:51;2.60;;;1.90;;
12725;SDS011;6427;49.754;6.106;2023-07-20T00:34:19;2.60;;;1.90;;
12725;SDS011;6427;49.754;6.106;2023-07-20T00:36:46;5.03;;;2.30;;
12725;SDS011;6427;49.754;6.106;2023-07-20T00:39:14;4.73;;;2.13;;
12725;SDS011;6427;49.754;6.106;2023-07-20T00:41:41;3.40;;;2.20;;
12725;SDS011;6427;49.754;6.106;2023-07-20T00:44:09;5.20;;;2.37;;
12725;SDS011;6427;49.754;6.106;2023-07-20T00:46:37;5.83;;;2.60;;
12725;SDS011;6427;49.754;6.106;2023-07-20T00:49:04;3.83;;;2.63;;
12725;SDS011;6427;49.754;6.106;2023-07-20T00:51:32;5.05;;;2.83;;
12725;SDS011;6427;49.754;6.106;2023-07-20T00:54:00;5.63;;;2.63;;
12725;SDS011;6427;49.754;6.106;2023-07-20T00:56:28;3.20;;;2.40;;
12725;SDS011;6427;49.754;6.106;2023-07-20T00:58:55;4.83;;;2.40;;
12725;SDS011;6427;49.754;6.106;2023-07-20T01:01:23;3.53;;;2.13;;
12725;SDS011;6427;49.754;6.106;2023-07-20T01:03:51;5.37;;;2.33;;
12725;SDS011;6427;49.754;6.106;2023-07-20T01:06:26;6.00;;;2.40;;
12725;SDS011;6427;49.754;6.106;2023-07-20T01:11:43;5.32;;;2.87;;
12725;SDS011;6427;49.754;6.106;2023-07-20T01:14:21;3.37;;;2.37;;
12725;SDS011;6427;49.754;6.106;2023-07-20T01:16:49;2.50;;;2.27;;
12725;SDS011;6427;49.754;6.106;2023-07-20T01:19:17;5.90;;;2.67;;
12725;SDS011;6427;49.754;6.106;2023-07-20T01:21:57;4.95;;;2.72;;
12725;SDS011;6427;49.754;6.106;2023-07-20T01:27:49;3.87;;;2.13;;
12725;SDS011;6427;49.754;6.106;2023-07-20T01:33:16;3.00;;;2.30;;
12725;SDS011;6427;49.754;6.106;2023-07-20T01:35:44;5.27;;;2.60;;
12725;SDS011;6427;49.754;6.106;2023-07-20T01:38:12;3.40;;;2.33;;
12725;SDS011;6427;49.754;6.106;2023-07-20T01:40:40;4.40;;;2.47;;
12725;SDS011;6427;49.754;6.106;2023-07-20T01:43:09;4.40;;;2.50;;
12725;SDS011;6427;49.754;6.106;2023-07-20T01:45:36;9.97;;;2.33;;
12725;SDS011;6427;49.754;6.106;2023-07-20T01:48:05;4.53;;;2.30;;
12725;SDS011;6427;49.754;6.106;2023-07-20T01:50:32;3.17;;;2.07;;
12725;SDS011;6427;49.754;6.106;2023-07-20T01:53:01;4.33;;;2.30;;
12725;SDS011;6427;49.754;6.106;2023-07-20T01:55:28;3.33;;;2.10;;
12725;SDS011;6427;49.754;6.106;2023-07-20T01:57:56;4.33;;;2.60;;
12725;SDS011;6427;49.754;6.106;2023-07-20T02:00:23;6.53;;;2.40;;
12725;SDS011;6427;49.754;6.106;2023-07-20T02:02:51;5.23;;;2.60;;
12725;SDS011;6427;49.754;6.106;2023-07-20T02:05:18;4.13;;;2.57;;
12725;SDS011;6427;49.754;6.106;2023-07-20T02:07:46;3.93;;;2.13;;
12725;SDS011;6427;49.754;6.106;2023-07-20T02:10:14;4.37;;;2.20;;
12725;SDS011;6427;49.754;6.106;2023-07-20T02:12:42;6.60;;;3.00;;
12725;SDS011;6427;49.754;6.106;2023-07-20T02:15:10;5.53;;;2.20;;
12725;SDS011;6427;49.754;6.106;2023-07-20T02:17:37;6.03;;;2.50;;
12725;SDS011;6427;49.754;6.106;2023-07-20T02:20:06;2.50;;;2.10;;
12725;SDS011;6427;49.754;6.106;2023-07-20T02:22:33;4.63;;;2.50;;
12725;SDS011;6427;49.754;6.106;2023-07-20T02:25:01;3.07;;;2.50;;
12725;SDS011;6427;49.754;6.106;2023-07-20T02:27:29;3.83;;;2.33;;
12725;SDS011;6427;49.754;6.106;2023-07-20T02:29:56;5.22;;;2.70;;
12725;SDS011;6427;49.754;6.106;2023-07-20T02:32:25;4.32;;;2.90;;
12725;SDS011;6427;49.754;6.106;2023-07-20T02:34:52;5.50;;;2.47;;
12725;SDS011;6427;49.754;6.106;2023-07-20T02:37:20;10.73;;;3.20;;
12725;SDS011;6427;49.754;6.106;2023-07-20T02:39:48;5.93;;;2.70;;
12725;SDS011;6427;49.754;6.106;2023-07-20T02:42:16;3.17;;;2.37;;
12725;SDS011;6427;49.754;6.106;2023-07-20T02:44:43;5.90;;;2.20;;
12725;SDS011;6427;49.754;6.106;2023-07-20T02:47:11;2.57;;;1.93;;
12725;SDS011;6427;49.754;6.106;2023-07-20T02:49:39;4.93;;;2.80;;
12725;SDS011;6427;49.754;6.106;2023-07-20T02:52:06;5.03;;;2.60;;
12725;SDS011;6427;49.754;6.106;2023-07-20T02:54:34;4.10;;;2.90;;
12725;SDS011;6427;49.754;6.106;2023-07-20T02:57:01;7.17;;;2.50;;
12725;SDS011;6427;49.754;6.106;2023-07-20T02:59:29;4.53;;;2.90;;
12725;SDS011;6427;49.754;6.106;2023-07-20T03:01:57;4.45;;;3.20;;
12725;SDS011;6427;49.754;6.106;2023-07-20T03:04:28;4.47;;;2.30;;
12725;SDS011;6427;49.754;6.106;2023-07-20T03:06:55;3.00;;;2.70;;
12725;SDS011;6427;49.754;6.106;2023-07-20T03:09:23;4.10;;;2.30;;
12725;SDS011;6427;49.754;6.106;2023-07-20T03:11:51;6.70;;;2.50;;
12725;SDS011;6427;49.754;6.106;2023-07-20T03:14:19;5.97;;;2.00;;
12725;SDS011;6427;49.754;6.106;2023-07-20T03:16:46;3.67;;;2.63;;
12725;SDS011;6427;49.754;6.106;2023-07-20T03:19:14;5.25;;;2.80;;
12725;SDS011;6427;49.754;6.106;2023-07-20T03:21:42;5.70;;;2.53;;
12725;SDS011;6427;49.754;6.106;2023-07-20T03:24:10;5.40;;;3.08;;
12725;SDS011;6427;49.754;6.106;2023-07-20T03:26:38;6.80;;;2.53;;
12725;SDS011;6427;49.754;6.106;2023-07-20T03:29:05;4.90;;;2.30;;
12725;SDS011;6427;49.754;6.106;2023-07-20T03:31:33;9.07;;;2.60;;
12725;SDS011;6427;49.754;6.106;2023-07-20T03:34:02;4.57;;;2.43;;
12725;SDS011;6427;49.754;6.106;2023-07-20T03:36:29;3.73;;;2.10;;
12725;SDS011;6427;49.754;6.106;2023-07-20T03:38:57;4.03;;;2.10;;
12725;SDS011;6427;49.754;6.106;2023-07-20T03:41:25;3.93;;;1.90;;
12725;SDS011;6427;49.754;6.106;2023-07-20T03:43:53;6.77;;;2.57;;
12725;SDS011;6427;49.754;6.106;2023-07-20T03:46:21;4.97;;;2.27;;
12725;SDS011;6427;49.754;6.106;2023-07-20T03:48:48;4.72;;;2.78;;
12725;SDS011;6427;49.754;6.106;2023-07-20T03:51:16;4.53;;;2.53;;
12725;SDS011;6427;49.754;6.106;2023-07-20T03:53:43;3.57;;;2.33;;
12725;SDS011;6427;49.754;6.106;2023-07-20T03:56:11;6.75;;;3.05;;
12725;SDS011;6427;49.754;6.106;2023-07-20T03:58:39;5.40;;;2.83;;
12725;SDS011;6427;49.754;6.106;2023-07-20T04:01:06;4.13;;;2.57;;
12725;SDS011;6427;49.754;6.106;2023-07-20T04:03:35;4.13;;;2.50;;
12725;SDS011;6427;49.754;6.106;2023-07-20T04:06:02;6.37;;;2.77;;
12725;SDS011;6427;49.754;6.106;2023-07-20T04:08:30;2.50;;;2.20;;
12725;SDS011;6427;49.754;6.106;2023-07-20T04:10:57;4.77;;;2.60;;
12725;SDS011;6427;49.754;6.106;2023-07-20T04:13:25;4.27;;;2.77;;
12725;SDS011;6427;49.754;6.106;2023-07-20T04:15:52;4.57;;;2.67;;
12725;SDS011;6427;49.754;6.106;2023-07-20T04:18:20;4.30;;;2.40;;
12725;SDS011;6427;49.754;6.106;2023-07-20T04:20:48;4.57;;;2.70;;
12725;SDS011;6427;49.754;6.106;2023-07-20T04:23:15;5.12;;;3.22;;
12725;SDS011;6427;49.754;6.106;2023-07-20T04:25:43;3.80;;;2.77;;
12725;SDS011;6427;49.754;6.106;2023-07-20T04:28:10;3.73;;;2.40;;
12725;SDS011;6427;49.754;6.106;2023-07-20T04:30:39;5.90;;;2.50;;
12725;SDS011;6427;49.754;6.106;2023-07-20T04:33:06;4.23;;;2.67;;
12725;SDS011;6427;49.754;6.106;2023-07-20T04:35:47;4.97;;;2.43;;
12725;SDS011;6427;49.754;6.106;2023-07-20T04:38:14;5.13;;;2.93;;
12725;SDS011;6427;49.754;6.106;2023-07-20T04:40:44;4.40;;;2.47;;
12725;SDS011;6427;49.754;6.106;2023-07-20T04:43:15;6.20;;;3.17;;
12725;SDS011;6427;49.754;6.106;2023-07-20T04:45:42;3.67;;;2.43;;
12725;SDS011;6427;49.754;6.106;2023-07-20T04:48:10;9.47;;;2.73;;
12725;SDS011;6427;49.754;6.106;2023-07-20T04:50:41;10.70;;;2.87;;
12725;SDS011;6427;49.754;6.106;2023-07-20T04:53:08;4.47;;;2.77;;
12725;SDS011;6427;49.754;6.106;2023-07-20T04:55:36;5.78;;;3.30;;
12725;SDS011;6427;49.754;6.106;2023-07-20T04:58:03;5.27;;;3.17;;
12725;SDS011;6427;49.754;6.106;2023-07-20T05:00:32;7.93;;;3.07;;
12725;SDS011;6427;49.754;6.106;2023-07-20T05:03:01;4.30;;;2.97;;
12725;SDS011;6427;49.754;6.106;2023-07-20T05:05:29;5.53;;;3.67;;
12725;SDS011;6427;49.754;6.106;2023-07-20T05:07:57;6.60;;;2.90;;
12725;SDS011;6427;49.754;6.106;2023-07-20T05:10:25;5.20;;;2.87;;
12725;SDS011;6427;49.754;6.106;2023-07-20T05:12:52;3.47;;;2.70;;
12725;SDS011;6427;49.754;6.106;2023-07-20T05:15:20;5.87;;;3.00;;
12725;SDS011;6427;49.754;6.106;2023-07-20T05:17:47;4.97;;;3.10;;
12725;SDS011;6427;49.754;6.106;2023-07-20T05:20:16;7.30;;;3.20;;
12725;SDS011;6427;49.754;6.106;2023-07-20T05:22:44;5.23;;;2.67;;
12725;SDS011;6427;49.754;6.106;2023-07-20T05:25:12;7.07;;;3.03;;
12725;SDS011;6427;49.754;6.106;2023-07-20T05:27:39;5.27;;;2.93;;
12725;SDS011;6427;49.754;6.106;2023-07-20T05:30:08;4.63;;;3.20;;
12725;SDS011;6427;49.754;6.106;2023-07-20T05:32:35;7.53;;;3.70;;
12725;SDS011;6427;49.754;6.106;2023-07-20T05:35:03;5.70;;;3.53;;
12725;SDS011;6427;49.754;6.106;2023-07-20T05:37:31;5.90;;;2.93;;
12725;SDS011;6427;49.754;6.106;2023-07-20T05:40:00;7.07;;;3.47;;
12725;SDS011;6427;49.754;6.106;2023-07-20T05:42:27;5.13;;;2.80;;
12725;SDS011;6427;49.754;6.106;2023-07-20T05:44:55;8.17;;;3.17;;
12725;SDS011;6427;49.754;6.106;2023-07-20T05:47:23;5.27;;;3.23;;
12725;SDS011;6427;49.754;6.106;2023-07-20T05:49:50;5.80;;;3.55;;
12725;SDS011;6427;49.754;6.106;2023-07-20T05:52:18;5.07;;;3.17;;
12725;SDS011;6427;49.754;6.106;2023-07-20T05:54:45;8.20;;;3.77;;
12725;SDS011;6427;49.754;6.106;2023-07-20T05:57:13;8.10;;;4.25;;
12725;SDS011;6427;49.754;6.106;2023-07-20T05:59:41;7.53;;;3.60;;
12725;SDS011;6427;49.754;6.106;2023-07-20T06:02:09;7.03;;;3.70;;
12725;SDS011;6427;49.754;6.106;2023-07-20T06:04:38;7.43;;;4.07;;
12725;SDS011;6427;49.754;6.106;2023-07-20T06:07:04;7.25;;;4.68;;
12725;SDS011;6427;49.754;6.106;2023-07-20T06:09:32;6.43;;;3.63;;
12725;SDS011;6427;49.754;6.106;2023-07-20T06:12:00;8.48;;;4.75;;
12725;SDS011;6427;49.754;6.106;2023-07-20T06:14:28;9.53;;;4.33;;
12725;SDS011;6427;49.754;6.106;2023-07-20T06:16:56;5.53;;;4.13;;
12725;SDS011;6427;49.754;6.106;2023-07-20T06:19:24;6.13;;;4.10;;
12725;SDS011;6427;49.754;6.106;2023-07-20T06:21:51;8.18;;;5.28;;
12725;SDS011;6427;49.754;6.106;2023-07-20T06:24:19;9.00;;;5.00;;
12725;SDS011;6427;49.754;6.106;2023-07-20T06:26:46;7.97;;;4.90;;
12725;SDS011;6427;49.754;6.106;2023-07-20T06:29:14;7.97;;;4.17;;
12725;SDS011;6427;49.754;6.106;2023-07-20T06:31:42;6.20;;;3.83;;
12725;SDS011;6427;49.754;6.106;2023-07-20T06:34:09;7.17;;;4.23;;
12725;SDS011;6427;49.754;6.106;2023-07-20T06:36:37;7.50;;;4.10;;
12725;SDS011;6427;49.754;6.106;2023-07-20T06:39:04;6.87;;;4.30;;
12725;SDS011;6427;49.754;6.106;2023-07-20T06:41:32;6.03;;;4.27;;
12725;SDS011;6427;49.754;6.106;2023-07-20T06:44:00;8.17;;;4.10;;
12725;SDS011;6427;49.754;6.106;2023-07-20T06:46:28;7.00;;;4.13;;
12725;SDS011;6427;49.754;6.106;2023-07-20T06:48:56;8.70;;;4.62;;
12725;SDS011;6427;49.754;6.106;2023-07-20T06:51:24;6.97;;;4.70;;
12725;SDS011;6427;49.754;6.106;2023-07-20T06:53:52;7.50;;;3.80;;
12725;SDS011;6427;49.754;6.106;2023-07-20T06:56:19;8.13;;;3.90;;
12725;SDS011;6427;49.754;6.106;2023-07-20T06:58:47;8.23;;;3.93;;
12725;SDS011;6427;49.754;6.106;2023-07-20T07:01:14;9.80;;;3.70;;
12725;SDS011;6427;49.754;6.106;2023-07-20T07:03:42;4.63;;;3.40;;
12725;SDS011;6427;49.754;6.106;2023-07-20T07:06:10;6.67;;;3.90;;
12725;SDS011;6427;49.754;6.106;2023-07-20T07:08:37;6.33;;;3.73;;
12725;SDS011;6427;49.754;6.106;2023-07-20T07:11:05;6.20;;;3.60;;
12725;SDS011;6427;49.754;6.106;2023-07-20T07:13:32;5.73;;;3.73;;
12725;SDS011;6427;49.754;6.106;2023-07-20T07:16:00;6.60;;;3.87;;
12725;SDS011;6427;49.754;6.106;2023-07-20T07:18:27;10.10;;;3.90;;
12725;SDS011;6427;49.754;6.106;2023-07-20T07:20:55;5.97;;;3.83;;
12725;SDS011;6427;49.754;6.106;2023-07-20T07:23:23;11.83;;;3.80;;
12725;SDS011;6427;49.754;6.106;2023-07-20T07:25:50;6.73;;;3.83;;
12725;SDS011;6427;49.754;6.106;2023-07-20T07:28:18;6.10;;;3.87;;
12725;SDS011;6427;49.754;6.106;2023-07-20T07:30:45;7.50;;;3.50;;
12725;SDS011;6427;49.754;6.106;2023-07-20T07:33:13;7.53;;;3.97;;
12725;SDS011;6427;49.754;6.106;2023-07-20T07:35:41;7.55;;;4.50;;
12725;SDS011;6427;49.754;6.106;2023-07-20T07:38:08;6.27;;;4.13;;
12725;SDS011;6427;49.754;6.106;2023-07-20T07:40:36;7.67;;;4.47;;
12725;SDS011;6427;49.754;6.106;2023-07-20T07:43:03;8.25;;;4.60;;
12725;SDS011;6427;49.754;6.106;2023-07-20T07:45:34;6.33;;;4.23;;
12725;SDS011;6427;49.754;6.106;2023-07-20T07:47:59;6.60;;;4.40;;
12725;SDS011;6427;49.754;6.106;2023-07-20T07:50:26;6.90;;;3.73;;
12725;SDS011;6427;49.754;6.106;2023-07-20T07:52:54;11.43;;;4.33;;
12725;SDS011;6427;49.754;6.106;2023-07-20T07:55:21;7.67;;;4.07;;
12725;SDS011;6427;49.754;6.106;2023-07-20T07:57:49;7.80;;;4.00;;
12725;SDS011;6427;49.754;6.106;2023-07-20T08:00:17;5.77;;;3.70;;
12725;SDS011;6427;49.754;6.106;2023-07-20T08:02:45;7.23;;;3.90;;
12725;SDS011;6427;49.754;6.106;2023-07-20T08:05:12;8.17;;;4.10;;
12725;SDS011;6427;49.754;6.106;2023-07-20T08:07:40;10.53;;;4.17;;
12725;SDS011;6427;49.754;6.106;2023-07-20T08:10:08;10.17;;;3.63;;
12725;SDS011;6427;49.754;6.106;2023-07-20T08:12:36;7.40;;;4.17;;
12725;SDS011;6427;49.754;6.106;2023-07-20T08:15:04;8.77;;;4.00;;
12725;SDS011;6427;49.754;6.106;2023-07-20T08:17:32;5.83;;;3.77;;
12725;SDS011;6427;49.754;6.106;2023-07-20T08:20:01;8.63;;;3.93;;
12725;SDS011;6427;49.754;6.106;2023-07-20T08:22:28;9.23;;;4.00;;
12725;SDS011;6427;49.754;6.106;2023-07-20T08:24:56;7.83;;;3.87;;
12725;SDS011;6427;49.754;6.106;2023-07-20T08:27:24;7.20;;;3.70;;
12725;SDS011;6427;49.754;6.106;2023-07-20T08:29:51;6.33;;;3.30;;
12725;SDS011;6427;49.754;6.106;2023-07-20T08:32:19;6.70;;;3.97;;
12725;SDS011;6427;49.754;6.106;2023-07-20T08:34:46;6.53;;;3.77;;
12725;SDS011;6427;49.754;6.106;2023-07-20T08:37:14;10.53;;;3.47;;
12725;SDS011;6427;49.754;6.106;2023-07-20T08:39:42;6.10;;;4.17;;
12725;SDS011;6427;49.754;6.106;2023-07-20T08:42:11;7.40;;;3.93;;
12725;SDS011;6427;49.754;6.106;2023-07-20T08:44:38;4.80;;;3.20;;
12725;SDS011;6427;49.754;6.106;2023-07-20T08:47:06;6.07;;;3.17;;
12725;SDS011;6427;49.754;6.106;2023-07-20T08:49:34;5.30;;;3.50;;
12725;SDS011;6427;49.754;6.106;2023-07-20T08:52:02;6.40;;;3.70;;
12725;SDS011;6427;49.754;6.106;2023-07-20T08:54:30;5.77;;;3.13;;
12725;SDS011;6427;49.754;6.106;2023-07-20T08:56:58;4.83;;;3.23;;
12725;SDS011;6427;49.754;6.106;2023-07-20T08:59:25;4.33;;;3.23;;
12725;SDS011;6427;49.754;6.106;2023-07-20T09:01:54;7.60;;;2.90;;
12725;SDS011;6427;49.754;6.106;2023-07-20T09:04:22;4.93;;;3.13;;
12725;SDS011;6427;49.754;6.106;2023-07-20T09:06:50;5.80;;;2.80;;
12725;SDS011;6427;49.754;6.106;2023-07-20T09:09:18;6.00;;;3.60;;
12725;SDS011;6427;49.754;6.106;2023-07-20T09:11:50;6.07;;;3.33;;
12725;SDS011;6427;49.754;6.106;2023-07-20T09:14:14;3.73;;;2.60;;
12725;SDS011;6427;49.754;6.106;2023-07-20T09:16:49;6.03;;;2.73;;
12725;SDS011;6427;49.754;6.106;2023-07-20T09:19:22;5.20;;;2.73;;
12725;SDS011;6427;49.754;6.106;2023-07-20T09:21:49;5.43;;;3.03;;
12725;SDS011;6427;49.754;6.106;2023-07-20T09:24:18;5.03;;;3.10;;
12725;SDS011;6427;49.754;6.106;2023-07-20T09:26:47;5.53;;;2.67;;
12725;SDS011;6427;49.754;6.106;2023-07-20T09:29:14;5.23;;;2.77;;
12725;SDS011;6427;49.754;6.106;2023-07-20T09:31:42;3.17;;;2.57;;
12725;SDS011;6427;49.754;6.106;2023-07-20T09:34:10;6.60;;;2.93;;
12725;SDS011;6427;49.754;6.106;2023-07-20T09:36:38;6.37;;;3.10;;
12725;SDS011;6427;49.754;6.106;2023-07-20T09:39:05;5.87;;;2.97;;
12725;SDS011;6427;49.754;6.106;2023-07-20T09:41:39;6.55;;;3.40;;
12725;SDS011;6427;49.754;6.106;2023-07-20T09:44:06;5.97;;;2.83;;
12725;SDS011;6427;49.754;6.106;2023-07-20T09:46:47;4.63;;;2.77;;
12725;SDS011;6427;49.754;6.106;2023-07-20T09:49:17;5.73;;;2.37;;
12725;SDS011;6427;49.754;6.106;2023-07-20T09:51:45;3.97;;;2.20;;
12725;SDS011;6427;49.754;6.106;2023-07-20T09:54:13;2.70;;;1.77;;
12725;SDS011;6427;49.754;6.106;2023-07-20T09:56:40;5.40;;;2.75;;
12725;SDS011;6427;49.754;6.106;2023-07-20T09:59:08;4.20;;;2.50;;
12725;SDS011;6427;49.754;6.106;2023-07-20T10:01:36;5.25;;;2.75;;
12725;SDS011;6427;49.754;6.106;2023-07-20T10:04:04;6.40;;;2.93;;
12725;SDS011;6427;49.754;6.106;2023-07-20T10:06:32;3.65;;;2.40;;
12725;SDS011;6427;49.754;6.106;2023-07-20T10:09:03;3.10;;;2.43;;
12725;SDS011;6427;49.754;6.106;2023-07-20T10:11:31;3.80;;;1.97;;
12725;SDS011;6427;49.754;6.106;2023-07-20T10:13:58;3.70;;;2.33;;
12725;SDS011;6427;49.754;6.106;2023-07-20T10:16:31;4.00;;;2.00;;
12725;SDS011;6427;49.754;6.106;2023-07-20T10:19:02;4.10;;;1.87;;
12725;SDS011;6427;49.754;6.106;2023-07-20T10:21:27;3.97;;;1.83;;
12725;SDS011;6427;49.754;6.106;2023-07-20T10:23:58;3.80;;;2.03;;
12725;SDS011;6427;49.754;6.106;2023-07-20T10:26:26;3.53;;;2.10;;
12725;SDS011;6427;49.754;6.106;2023-07-20T10:28:53;5.30;;;1.97;;
12725;SDS011;6427;49.754;6.106;2023-07-20T10:31:22;3.12;;;2.17;;
12725;SDS011;6427;49.754;6.106;2023-07-20T10:33:50;5.10;;;2.30;;
12725;SDS011;6427;49.754;6.106;2023-07-20T10:36:21;2.13;;;1.80;;
12725;SDS011;6427;49.754;6.106;2023-07-20T10:41:27;3.50;;;1.80;;
12725;SDS011;6427;49.754;6.106;2023-07-20T10:43:43;3.50;;;1.70;;
12725;SDS011;6427;49.754;6.106;2023-07-20T10:46:11;2.40;;;1.67;;
12725;SDS011;6427;49.754;6.106;2023-07-20T10:51:27;4.07;;;1.27;;
12725;SDS011;6427;49.754;6.106;2023-07-20T10:53:59;2.43;;;1.73;;
12725;SDS011;6427;49.754;6.106;2023-07-20T10:56:24;2.70;;;1.60;;
12725;SDS011;6427;49.754;6.106;2023-07-20T10:58:55;3.55;;;1.70;;
12725;SDS011;6427;49.754;6.106;2023-07-20T11:01:18;2.23;;;1.67;;
12725;SDS011;6427;49.754;6.106;2023-07-20T11:03:49;2.47;;;1.70;;
12725;SDS011;6427;49.754;6.106;2023-07-20T11:08:56;3.73;;;1.57;;
12725;SDS011;6427;49.754;6.106;2023-07-20T11:19:01;6.40;;;1.70;;
12725;SDS011;6427;49.754;6.106;2023-07-20T11:21:29;1.83;;;1.58;;
12725;SDS011;6427;49.754;6.106;2023-07-20T11:23:56;3.40;;;1.67;;
12725;SDS011;6427;49.754;6.106;2023-07-20T11:26:24;2.23;;;1.53;;
12725;SDS011;6427;49.754;6.106;2023-07-20T11:28:51;1.90;;;1.37;;
12725;SDS011;6427;49.754;6.106;2023-07-20T11:31:19;2.67;;;1.70;;
12725;SDS011;6427;49.754;6.106;2023-07-20T11:33:46;2.53;;;1.33;;
12725;SDS011;6427;49.754;6.106;2023-07-20T11:36:14;1.90;;;1.47;;
12725;SDS011;6427;49.754;6.106;2023-07-20T11:38:42;1.90;;;1.00;;
12725;SDS011;6427;49.754;6.106;2023-07-20T11:41:12;4.10;;;1.13;;
12725;SDS011;6427;49.754;6.106;2023-07-20T11:43:40;2.50;;;1.47;;
12725;SDS011;6427;49.754;6.106;2023-07-20T11:46:07;1.67;;;1.30;;
12725;SDS011;6427;49.754;6.106;2023-07-20T11:48:35;3.17;;;1.33;;
12725;SDS011;6427;49.754;6.106;2023-07-20T11:51:02;3.20;;;1.60;;
12725;SDS011;6427;49.754;6.106;2023-07-20T11:53:30;2.20;;;1.47;;
12725;SDS011;6427;49.754;6.106;2023-07-20T11:55:57;3.03;;;1.17;;
12725;SDS011;6427;49.754;6.106;2023-07-20T11:58:27;1.92;;;1.45;;
12725;SDS011;6427;49.754;6.106;2023-07-20T12:00:53;2.27;;;1.40;;
12725;SDS011;6427;49.754;6.106;2023-07-20T12:03:21;1.85;;;1.00;;
12725;SDS011;6427;49.754;6.106;2023-07-20T12:05:49;1.30;;;1.17;;
12725;SDS011;6427;49.754;6.106;2023-07-20T12:08:17;2.70;;;1.10;;
12725;SDS011;6427;49.754;6.106;2023-07-20T12:10:44;2.57;;;1.13;;
12725;SDS011;6427;49.754;6.106;2023-07-20T12:13:12;2.80;;;1.20;;
12725;SDS011;6427;49.754;6.106;2023-07-20T12:15:40;1.50;;;1.10;;
12725;SDS011;6427;49.754;6.106;2023-07-20T12:18:07;2.93;;;1.00;;
12725;SDS011;6427;49.754;6.106;2023-07-20T12:20:36;1.97;;;1.00;;
12725;SDS011;6427;49.754;6.106;2023-07-20T12:23:03;1.60;;;0.90;;
12725;SDS011;6427;49.754;6.106;2023-07-20T12:25:40;2.97;;;1.17;;
12725;SDS011;6427;49.754;6.106;2023-07-20T12:28:19;1.23;;;1.03;;
12725;SDS011;6427;49.754;6.106;2023-07-20T12:30:44;1.57;;;1.00;;
12725;SDS011;6427;49.754;6.106;2023-07-20T12:33:12;1.53;;;0.80;;
12725;SDS011;6427;49.754;6.106;2023-07-20T12:35:39;3.20;;;0.80;;
12725;SDS011;6427;49.754;6.106;2023-07-20T12:38:07;1.93;;;0.90;;
12725;SDS011;6427;49.754;6.106;2023-07-20T12:40:34;1.10;;;0.82;;
12725;SDS011;6427;49.754;6.106;2023-07-20T12:43:02;4.23;;;1.13;;
12725;SDS011;6427;49.754;6.106;2023-07-20T12:45:30;2.17;;;0.80;;
12725;SDS011;6427;49.754;6.106;2023-07-20T12:47:57;0.77;;;0.67;;
12725;SDS011;6427;49.754;6.106;2023-07-20T12:50:26;1.55;;;0.80;;
12725;SDS011;6427;49.754;6.106;2023-07-20T12:52:52;2.30;;;0.80;;
12725;SDS011;6427;49.754;6.106;2023-07-20T12:55:20;0.87;;;0.87;;
12725;SDS011;6427;49.754;6.106;2023-07-20T12:57:48;1.00;;;0.68;;
12725;SDS011;6427;49.754;6.106;2023-07-20T13:00:15;2.17;;;0.60;;
12725;SDS011;6427;49.754;6.106;2023-07-20T13:02:43;1.90;;;0.60;;
12725;SDS011;6427;49.754;6.106;2023-07-20T13:05:10;2.53;;;0.90;;
12725;SDS011;6427;49.754;6.106;2023-07-20T13:07:38;2.30;;;0.60;;
12725;SDS011;6427;49.754;6.106;2023-07-20T13:10:06;0.70;;;0.70;;
12725;SDS011;6427;49.754;6.106;2023-07-20T13:12:34;1.17;;;0.90;;
12725;SDS011;6427;49.754;6.106;2023-07-20T13:15:01;1.50;;;0.80;;
12725;SDS011;6427;49.754;6.106;2023-07-20T13:17:29;1.73;;;0.67;;
12725;SDS011;6427;49.754;6.106;2023-07-20T13:19:57;2.00;;;0.60;;
12725;SDS011;6427;49.754;6.106;2023-07-20T13:22:24;1.90;;;0.77;;
12725;SDS011;6427;49.754;6.106;2023-07-20T13:24:52;0.93;;;0.70;;
12725;SDS011;6427;49.754;6.106;2023-07-20T13:27:20;1.07;;;0.90;;
12725;SDS011;6427;49.754;6.106;2023-07-20T13:29:48;2.40;;;0.73;;
12725;SDS011;6427;49.754;6.106;2023-07-20T13:32:15;1.77;;;0.90;;
12725;SDS011;6427;49.754;6.106;2023-07-20T13:34:43;1.13;;;0.70;;
12725;SDS011;6427;49.754;6.106;2023-07-20T13:37:11;1.23;;;0.83;;
12725;SDS011;6427;49.754;6.106;2023-07-20T13:39:38;0.90;;;0.70;;
12725;SDS011;6427;49.754;6.106;2023-07-20T13:42:07;2.10;;;0.90;;
12725;SDS011;6427;49.754;6.106;2023-07-20T13:44:34;2.13;;;0.67;;
12725;SDS011;6427;49.754;6.106;2023-07-20T13:47:02;1.00;;;0.60;;
12725;SDS011;6427;49.754;6.106;2023-07-20T13:49:30;1.27;;;0.83;;
12725;SDS011;6427;49.754;6.106;2023-07-20T13:51:58;3.80;;;0.83;;
12725;SDS011;6427;49.754;6.106;2023-07-20T13:54:25;1.40;;;0.67;;
12725;SDS011;6427;49.754;6.106;2023-07-20T13:56:53;3.07;;;0.80;;
12725;SDS011;6427;49.754;6.106;2023-07-20T13:59:21;1.80;;;0.70;;
12725;SDS011;6427;49.754;6.106;2023-07-20T14:01:48;1.90;;;0.80;;
12725;SDS011;6427;49.754;6.106;2023-07-20T14:04:16;1.80;;;0.80;;
12725;SDS011;6427;49.754;6.106;2023-07-20T14:06:43;2.80;;;0.90;;
12725;SDS011;6427;49.754;6.106;2023-07-20T14:09:11;1.70;;;0.70;;
12725;SDS011;6427;49.754;6.106;2023-07-20T14:11:39;1.03;;;0.70;;
12725;SDS011;6427;49.754;6.106;2023-07-20T14:14:07;1.07;;;0.70;;
12725;SDS011;6427;49.754;6.106;2023-07-20T14:16:34;3.13;;;0.63;;
12725;SDS011;6427;49.754;6.106;2023-07-20T14:19:02;1.30;;;0.70;;
12725;SDS011;6427;49.754;6.106;2023-07-20T14:21:30;1.10;;;0.70;;
12725;SDS011;6427;49.754;6.106;2023-07-20T14:23:57;3.03;;;0.97;;
12725;SDS011;6427;49.754;6.106;2023-07-20T14:26:25;1.83;;;0.80;;
12725;SDS011;6427;49.754;6.106;2023-07-20T14:28:52;1.33;;;0.60;;
12725;SDS011;6427;49.754;6.106;2023-07-20T14:31:20;1.07;;;0.80;;
12725;SDS011;6427;49.754;6.106;2023-07-20T14:33:49;1.00;;;0.80;;
12725;SDS011;6427;49.754;6.106;2023-07-20T14:36:17;1.97;;;0.73;;
12725;SDS011;6427;49.754;6.106;2023-07-20T14:38:45;2.03;;;0.90;;
12725;SDS011;6427;49.754;6.106;2023-07-20T14:41:13;1.60;;;0.70;;
12725;SDS011;6427;49.754;6.106;2023-07-20T14:43:40;1.00;;;0.83;;
12725;SDS011;6427;49.754;6.106;2023-07-20T14:46:08;1.90;;;0.80;;
12725;SDS011;6427;49.754;6.106;2023-07-20T14:48:35;1.87;;;0.80;;
12725;SDS011;6427;49.754;6.106;2023-07-20T14:51:03;1.67;;;0.60;;
12725;SDS011;6427;49.754;6.106;2023-07-20T14:53:31;1.40;;;0.80;;
12725;SDS011;6427;49.754;6.106;2023-07-20T14:55:59;1.03;;;0.70;;
12725;SDS011;6427;49.754;6.106;2023-07-20T14:58:26;0.83;;;0.60;;
12725;SDS011;6427;49.754;6.106;2023-07-20T15:00:53;0.90;;;0.60;;
12725;SDS011;6427;49.754;6.106;2023-07-20T15:03:21;1.00;;;0.90;;
12725;SDS011;6427;49.754;6.106;2023-07-20T15:05:49;0.70;;;0.60;;
12725;SDS011;6427;49.754;6.106;2023-07-20T15:08:17;3.47;;;0.97;;
12725;SDS011;6427;49.754;6.106;2023-07-20T15:10:45;3.47;;;0.83;;
12725;SDS011;6427;49.754;6.106;2023-07-20T15:13:12;2.47;;;0.80;;
12725;SDS011;6427;49.754;6.106;2023-07-20T15:15:40;1.30;;;0.90;;
12725;SDS011;6427;49.754;6.106;2023-07-20T15:18:07;0.77;;;0.70;;
12725;SDS011;6427;49.754;6.106;2023-07-20T15:20:35;2.87;;;0.90;;
12725;SDS011;6427;49.754;6.106;2023-07-20T15:23:02;0.73;;;0.73;;
12725;SDS011;6427;49.754;6.106;2023-07-20T15:25:30;0.90;;;0.73;;
12725;SDS011;6427;49.754;6.106;2023-07-20T15:27:58;0.90;;;0.70;;
12725;SDS011;6427;49.754;6.106;2023-07-20T15:30:26;0.70;;;0.60;;